Time;durP1;ratioP1;P1;durP2;ratioP2;P2;SDS_P1;SDS_P2;PMS_P1;PMS_P2;Temp;Humidity;BMP_temperature;BMP_pressure;BME280_temperature;BME280_humidity;BME280_pressure;Samples;Min_cycle;Max_cycle;Signal;HPM_P1;HPM_P2
2021/05/25 00:00:45;;;;;;;;;;;;;;;;;;5074060;28;19912;-72
2021/05/25 00:03:11;;;;;;;;;;;;;;;;;;5081744;28;19953;-73
2021/05/25 00:05:37;;;;;;;;;;;;;;;;;;5089994;28;20293;-71
2021/05/25 00:08:03;;;;;;;;;;;;;;;;;;5087617;28;19908;-71
2021/05/25 00:10:28;;;;;;;;;;;;;;;;;;5072279;28;19913;-72
2021/05/25 00:12:54;;;;;;;;;;;;;;;;;;5071554;28;19905;-71
2021/05/25 00:15:20;;;;;;;;;;;;;;;;;;5078859;28;20265;-71
2021/05/25 00:17:46;;;;;;;;;;;;;;;;;;5091019;28;20014;-71
2021/05/25 00:20:12;;;;;;;;;;;;;;;;;;5072232;28;19908;-71
2021/05/25 00:22:38;;;;;;;;;;;;;;;;;;5072957;28;19908;-70
2021/05/25 00:25:04;;;;;;;;;;;;;;;;;;5078301;28;19912;-71
2021/05/25 00:27:30;;;;;;;;;;;;;;;;;;5089767;28;20369;-71
2021/05/25 00:29:56;;;;;;;;;;;;;;;;;;5090656;28;19980;-71
2021/05/25 00:32:22;;;;;;;;;;;;;;;;;;5088246;28;20405;-73
2021/05/25 00:34:48;;;;;;;;;;;;;;;;;;5080655;28;19915;-72
2021/05/25 00:37:14;;;;;;;;;;;;;;;;;;5074365;28;19909;-73
2021/05/25 00:39:40;;;;;;;;;;;;;;;;;;5073083;28;19908;-73
2021/05/25 00:42:06;;;;;;;;;;;;;;;;;;5074563;28;19916;-73
2021/05/25 00:44:32;;;;;;;;;;;;;;;;;;5071469;28;19912;-72
2021/05/25 00:46:57;;;;;;;;;;;;;;;;;;5078165;28;19908;-73
2021/05/25 00:49:23;;;;;;;;;;;;;;;;;;5091127;28;20395;-72
2021/05/25 00:51:49;;;;;;;;;;;;;;;;;;5083304;28;20446;-72
2021/05/25 00:54:15;;;;;;;;;;;;;;;;;;5072805;28;19919;-72
2021/05/25 00:56:41;;;;;;;;;;;;;;;;;;5085678;28;19909;-72
2021/05/25 00:59:07;;;;;;;;;;;;;;;;;;5071534;28;19909;-72
2021/05/25 01:01:33;;;;;;;;;;;;;;;;;;5084104;28;19994;-72
2021/05/25 01:03:59;;;;;;;;;;;;;;;;;;5076271;28;19931;-72
2021/05/25 01:06:25;;;;;;;;;;;;;;;;;;5072827;28;19992;-73
2021/05/25 01:08:50;;;;;;;;;;;;;;;;;;5091149;28;20688;-73
2021/05/25 01:11:18;;;;;;;;;;;;;;;;;;5089790;28;19955;-72
2021/05/25 01:16:10;;;;;;;;;;;;;;;;;;5071091;28;20007;-73
2021/05/25 01:18:36;;;;;;;;;;;;;;;;;;5081965;28;19913;-73
2021/05/25 01:21:02;;;;;;;;;;;;;;;;;;5081713;28;20424;-72
2021/05/25 01:23:28;;;;;;;;;;;;;;;;;;5091509;28;19926;-73
2021/05/25 01:25:54;;;;;;;;;;;;;;;;;;5071989;28;19908;-72
2021/05/25 01:28:20;;;;;;;;;;;;;;;;;;5088791;28;19916;-73
2021/05/25 01:30:46;;;;;;;;;;;;;;;;;;5090305;28;19908;-73
2021/05/25 01:33:12;;;;;;;;;;;;;;;;;;5083249;28;19907;-72
2021/05/25 01:35:38;;;;;;;;;;;;;;;;;;5071188;28;19904;-73
2021/05/25 01:38:04;;;;;;;;;;;;;;;;;;5070665;28;20003;-72
2021/05/25 01:40:30;;;;;;;;;;;;;;;;;;5069988;28;19904;-73
2021/05/25 01:42:56;;;;;;;;;;;;;;;;;;5084877;28;19926;-72
2021/05/25 01:45:22;;;;;;;;;;;;;;;;;;5076967;28;20318;-72
2021/05/25 01:47:48;;;;;;;;;;;;;;;;;;5075788;28;19916;-73
2021/05/25 01:50:14;;;;;;;;;;;;;;;;;;5090428;28;19925;-73
2021/05/25 01:52:40;;;;;;;;;;;;;;;;;;5082593;28;20466;-73
2021/05/25 01:55:07;;;;;;;;;;;;;;;;;;5071115;28;19908;-73
2021/05/25 01:57:33;;;;;;;;;;;;;;;;;;5084467;28;19904;-72
2021/05/25 01:59:59;;;;;;;;;;;;;;;;;;5080142;28;20258;-72
2021/05/25 02:02:25;;;;;;;;;;;;;;;;;;5087064;28;19918;-72
2021/05/25 02:04:51;;;;;;;;;;;;;;;;;;5083569;28;19935;-72
2021/05/25 02:07:16;;;;;;;;;;;;;;;;;;5084185;28;19904;-72
2021/05/25 02:09:42;;;;;;;;;;;;;;;;;;5074694;28;20006;-73
2021/05/25 02:12:08;;;;;;;;;;;;;;;;;;5084598;28;19987;-73
2021/05/25 02:14:34;;;;;;;;;;;;;;;;;;5073091;28;19912;-72
2021/05/25 02:17:00;;;;;;;;;;;;;;;;;;5082874;28;20377;-72
2021/05/25 02:19:27;;;;;;;;;;;;;;;;;;5089875;28;19912;-73
2021/05/25 02:21:53;;;;;;;;;;;;;;;;;;5084080;28;19911;-72
2021/05/25 02:24:18;;;;;;;;;;;;;;;;;;5089095;28;20293;-72
2021/05/25 02:26:44;;;;;;;;;;;;;;;;;;5080104;28;19918;-73
2021/05/25 02:29:10;;;;;;;;;;;;;;;;;;5090661;28;19955;-72
2021/05/25 02:31:36;;;;;;;;;;;;;;;;;;5089779;28;19908;-72
2021/05/25 02:34:02;;;;;;;;;;;;;;;;;;5085730;28;19912;-72
2021/05/25 02:36:28;;;;;;;;;;;;;;;;;;5090862;28;19953;-72
2021/05/25 02:38:54;;;;;;;;;;;;;;;;;;5074572;28;19911;-72
2021/05/25 02:41:20;;;;;;;;;;;;;;;;;;5070900;28;20412;-72
2021/05/25 02:43:46;;;;;;;;;;;;;;;;;;5070288;28;19912;-72
2021/05/25 02:46:11;;;;;;;;;;;;;;;;;;5070170;28;20415;-71
2021/05/25 02:48:37;;;;;;;;;;;;;;;;;;5069824;28;19947;-72
2021/05/25 02:51:03;;;;;;;;;;;;;;;;;;5071292;28;19955;-73
2021/05/25 02:53:29;;;;;;;;;;;;;;;;;;5073724;28;19958;-73
2021/05/25 02:55:55;;;;;;;;;;;;;;;;;;5074934;28;19928;-72
2021/05/25 02:58:21;;;;;;;;;;;;;;;;;;5087307;28;20386;-72
2021/05/25 03:00:47;;;;;;;;;;;;;;;;;;5088860;28;19913;-72
2021/05/25 03:03:13;;;;;;;;;;;;;;;;;;5074474;28;19908;-72
2021/05/25 03:05:39;;;;;;;;;;;;;;;;;;5072383;28;19904;-73
2021/05/25 03:08:05;;;;;;;;;;;;;;;;;;5079933;28;19923;-72
2021/05/25 03:10:30;;;;;;;;;;;;;;;;;;5091656;28;19908;-72
2021/05/25 03:12:56;;;;;;;;;;;;;;;;;;5091570;28;19912;-72
2021/05/25 03:15:22;;;;;;;;;;;;;;;;;;5093916;28;20350;-72
2021/05/25 03:17:48;;;;;;;;;;;;;;;;;;5092022;28;19951;-73
2021/05/25 03:20:14;;;;;;;;;;;;;;;;;;5093495;28;19904;-72
2021/05/25 03:22:40;;;;;;;;;;;;;;;;;;5090048;28;20593;-73
2021/05/25 03:25:06;;;;;;;;;;;;;;;;;;5073119;28;19908;-73
2021/05/25 03:27:32;;;;;;;;;;;;;;;;;;5086482;28;19916;-72
2021/05/25 03:29:57;;;;;;;;;;;;;;;;;;5073912;28;19954;-73
2021/05/25 03:32:23;;;;;;;;;;;;;;;;;;5077362;28;19908;-72
2021/05/25 03:34:49;;;;;;;;;;;;;;;;;;5093024;28;20313;-72
2021/05/25 03:37:15;;;;;;;;;;;;;;;;;;5072584;28;19951;-73
2021/05/25 03:39:41;;;;;;;;;;;;;;;;;;5072695;28;19919;-72
2021/05/25 03:42:07;;;;;;;;;;;;;;;;;;5083523;28;19915;-72
2021/05/25 03:44:33;;;;;;;;;;;;;;;;;;5087187;28;20322;-71
2021/05/25 03:46:59;;;;;;;;;;;;;;;;;;5075817;28;19994;-72
2021/05/25 03:49:24;;;;;;;;;;;;;;;;;;5074696;28;20301;-73
2021/05/25 03:51:50;;;;;;;;;;;;;;;;;;5079364;28;19965;-72
2021/05/25 03:54:27;;;;;;;;;;;;;;;;;;5092220;28;19919;-72
2021/05/25 03:56:57;;;;;;;;;;;;;;;;;;5085189;28;20003;-72
2021/05/25 03:59:23;;;;;;;;;;;;;;;;;;5082595;28;19946;-73
2021/05/25 04:01:49;;;;;;;;;;;;;;;;;;5087686;28;19939;-71
2021/05/25 04:04:15;;;;;;;;;;;;;;;;;;5071721;28;20316;-72
2021/05/25 04:06:41;;;;;;;;;;;;;;;;;;5072432;28;19971;-72
2021/05/25 04:09:08;;;;;;;;;;;;;;;;;;5085182;28;19916;-72
2021/05/25 04:11:34;;;;;;;;;;;;;;;;;;5087059;28;19908;-73
2021/05/25 04:14:00;;;;;;;;;;;;;;;;;;5092802;28;19904;-73
2021/05/25 04:16:26;;;;;;;;;;;;;;;;;;5090333;28;19919;-72
2021/05/25 04:18:52;;;;;;;;;;;;;;;;;;5092676;28;19908;-72
2021/05/25 04:21:18;;;;;;;;;;;;;;;;;;5087136;28;20333;-72
2021/05/25 04:23:44;;;;;;;;;;;;;;;;;;5092483;28;20475;-72
2021/05/25 04:26:10;;;;;;;;;;;;;;;;;;5090243;28;19994;-72
2021/05/25 04:28:36;;;;;;;;;;;;;;;;;;5073604;28;19950;-72
2021/05/25 04:31:02;;;;;;;;;;;;;;;;;;5088879;28;19946;-73
2021/05/25 04:33:28;;;;;;;;;;;;;;;;;;5083177;28;19920;-73
2021/05/25 04:35:54;;;;;;;;;;;;;;;;;;5081213;28;19904;-73
2021/05/25 04:38:20;;;;;;;;;;;;;;;;;;5078530;28;19922;-73
2021/05/25 04:40:47;;;;;;;;;;;;;;;;;;5072318;28;19916;-73
2021/05/25 04:43:12;;;;;;;;;;;;;;;;;;5069870;28;19919;-72
2021/05/25 04:45:39;;;;;;;;;;;;;;;;;;5071954;28;19991;-72
2021/05/25 04:48:05;;;;;;;;;;;;;;;;;;5083568;28;19938;-73
2021/05/25 04:50:31;;;;;;;;;;;;;;;;;;5080154;28;20683;-72
2021/05/25 04:52:57;;;;;;;;;;;;;;;;;;5088281;28;19908;-72
2021/05/25 04:55:23;;;;;;;;;;;;;;;;;;5087032;28;19989;-72
2021/05/25 04:57:48;;;;;;;;;;;;;;;;;;5089946;28;19904;-73
2021/05/25 05:00:14;;;;;;;;;;;;;;;;;;5083765;28;21446;-73
2021/05/25 05:02:40;;;;;;;;;;;;;;;;;;5071808;28;19933;-72
2021/05/25 05:05:06;;;;;;;;;;;;;;;;;;5071497;28;19943;-73
2021/05/25 05:07:32;;;;;;;;;;;;;;;;;;5070751;28;19909;-72
2021/05/25 05:09:58;;;;;;;;;;;;;;;;;;5072395;28;19999;-72
2021/05/25 05:12:25;;;;;;;;;;;;;;;;;;5071079;28;19904;-71
2021/05/25 05:14:51;;;;;;;;;;;;;;;;;;5073075;28;19931;-71
2021/05/25 05:17:17;;;;;;;;;;;;;;;;;;5080666;28;19912;-72
2021/05/25 05:19:43;;;;;;;;;;;;;;;;;;5070473;28;19920;-72
2021/05/25 05:22:09;;;;;;;;;;;;;;;;;;5071079;28;20348;-72
2021/05/25 05:24:35;;;;;;;;;;;;;;;;;;5076242;28;19908;-72
2021/05/25 05:27:01;;;;;;;;;;;;;;;;;;5078694;28;19915;-72
2021/05/25 05:29:27;;;;;;;;;;;;;;;;;;5087523;28;19963;-72
2021/05/25 05:31:53;;;;;;;;;;;;;;;;;;5089454;28;19925;-72
2021/05/25 05:34:19;;;;;;;;;;;;;;;;;;5091345;28;19918;-72
2021/05/25 05:36:44;;;;;;;;;;;;;;;;;;5091280;28;19947;-72
2021/05/25 05:39:10;;;;;;;;;;;;;;;;;;5090744;28;20362;-72
2021/05/25 05:41:36;;;;;;;;;;;;;;;;;;5090833;28;19950;-73
2021/05/25 05:44:02;;;;;;;;;;;;;;;;;;5078894;28;20003;-72
2021/05/25 05:46:28;;;;;;;;;;;;;;;;;;5080937;28;19912;-72
2021/05/25 05:48:55;;;;;;;;;;;;;;;;;;5091335;28;20487;-73
2021/05/25 05:51:20;;;;;;;;;;;;;;;;;;5092866;28;19904;-73
2021/05/25 05:53:46;;;;;;;;;;;;;;;;;;5088381;28;19949;-74
2021/05/25 05:56:12;;;;;;;;;;;;;;;;;;5070354;28;19912;-74
2021/05/25 05:58:38;;;;;;;;;;;;;;;;;;5071824;28;20370;-74
2021/05/25 06:01:04;;;;;;;;;;;;;;;;;;5070676;28;19983;-74
2021/05/25 06:03:30;;;;;;;;;;;;;;;;;;5076608;28;19962;-74
2021/05/25 06:05:56;;;;;;;;;;;;;;;;;;5090947;28;19918;-73
2021/05/25 06:08:22;;;;;;;;;;;;;;;;;;5085691;28;19909;-73
2021/05/25 06:10:51;;;;;;;;;;;;;;;;;;5070035;28;19935;-74
2021/05/25 06:13:17;;;;;;;;;;;;;;;;;;5070303;28;20366;-71
2021/05/25 06:15:43;;;;;;;;;;;;;;;;;;5080162;28;20006;-71
2021/05/25 06:18:09;;;;;;;;;;;;;;;;;;5088599;28;19999;-71
2021/05/25 06:20:35;;;;;;;;;;;;;;;;;;5089636;28;19915;-71
2021/05/25 06:23:01;;;;;;;;;;;;;;;;;;5089686;28;19911;-71
2021/05/25 06:25:27;;;;;;;;;;;;;;;;;;5074184;28;19959;-71
2021/05/25 06:27:54;;;;;;;;;;;;;;;;;;5074375;28;19904;-70
2021/05/25 06:30:19;;;;;;;;;;;;;;;;;;5074401;28;19952;-71
2021/05/25 06:32:45;;;;;;;;;;;;;;;;;;5073956;28;19951;-71
2021/05/25 06:35:11;;;;;;;;;;;;;;;;;;5074010;28;20736;-71
2021/05/25 06:37:37;;;;;;;;;;;;;;;;;;5074404;28;19904;-71
2021/05/25 06:40:03;;;;;;;;;;;;;;;;;;5074422;28;19945;-71
2021/05/25 06:42:29;;;;;;;;;;;;;;;;;;5073739;28;19904;-71
2021/05/25 06:44:55;;;;;;;;;;;;;;;;;;5073764;28;19931;-71
2021/05/25 06:47:21;;;;;;;;;;;;;;;;;;5085728;28;19925;-71
2021/05/25 06:49:47;;;;;;;;;;;;;;;;;;5094382;28;19916;-71
2021/05/25 06:52:13;;;;;;;;;;;;;;;;;;5093928;28;19934;-70
2021/05/25 06:54:38;;;;;;;;;;;;;;;;;;5093842;28;19908;-71
2021/05/25 06:57:04;;;;;;;;;;;;;;;;;;5094092;28;19953;-70
2021/05/25 06:59:30;;;;;;;;;;;;;;;;;;5094428;28;19904;-71
2021/05/25 07:01:56;;;;;;;;;;;;;;;;;;5092723;28;19908;-72
2021/05/25 07:04:22;;;;;;;;;;;;;;;;;;5093693;28;19922;-71
2021/05/25 07:06:48;;;;;;;;;;;;;;;;;;5094217;28;20022;-71
2021/05/25 07:09:14;;;;;;;;;;;;;;;;;;5093416;28;19912;-70
2021/05/25 07:11:40;;;;;;;;;;;;;;;;;;5093996;28;20437;-71
2021/05/25 07:14:06;;;;;;;;;;;;;;;;;;5092206;28;20372;-71
2021/05/25 07:16:32;;;;;;;;;;;;;;;;;;5084120;28;19913;-71
2021/05/25 07:18:58;;;;;;;;;;;;;;;;;;5086870;28;19908;-71
2021/05/25 07:21:24;;;;;;;;;;;;;;;;;;5093386;28;20400;-71
2021/05/25 07:23:50;;;;;;;;;;;;;;;;;;5093302;28;19916;-71
2021/05/25 07:26:16;;;;;;;;;;;;;;;;;;5093738;28;19986;-71
2021/05/25 07:28:42;;;;;;;;;;;;;;;;;;5093435;28;20035;-72
2021/05/25 07:31:08;;;;;;;;;;;;;;;;;;5093722;28;20266;-71
2021/05/25 07:33:34;;;;;;;;;;;;;;;;;;5092977;28;19900;-71
2021/05/25 07:36:00;;;;;;;;;;;;;;;;;;5093340;28;19911;-71
2021/05/25 07:38:26;;;;;;;;;;;;;;;;;;5092545;28;19991;-72
2021/05/25 07:40:52;;;;;;;;;;;;;;;;;;5093439;28;19904;-72
2021/05/25 07:43:17;;;;;;;;;;;;;;;;;;5093030;28;19908;-71
2021/05/25 07:45:44;;;;;;;;;;;;;;;;;;5089558;28;20022;-70
2021/05/25 07:48:10;;;;;;;;;;;;;;;;;;5092179;28;19930;-71
2021/05/25 07:50:36;;;;;;;;;;;;;;;;;;5091308;28;19912;-71
2021/05/25 07:53:02;;;;;;;;;;;;;;;;;;5093151;28;20436;-71
2021/05/25 07:55:28;;;;;;;;;;;;;;;;;;5092962;28;19947;-71
2021/05/25 07:57:54;;;;;;;;;;;;;;;;;;5092835;28;19938;-71
2021/05/25 08:00:20;;;;;;;;;;;;;;;;;;5093118;28;19904;-72
2021/05/25 08:02:46;;;;;;;;;;;;;;;;;;5093102;28;19904;-71
2021/05/25 08:05:12;;;;;;;;;;;;;;;;;;5092194;28;19970;-71
2021/05/25 08:07:38;;;;;;;;;;;;;;;;;;5092797;28;19904;-72
2021/05/25 08:10:04;;;;;;;;;;;;;;;;;;5092799;28;19912;-71
2021/05/25 08:12:30;;;;;;;;;;;;;;;;;;5092772;28;19904;-72
2021/05/25 08:14:58;;;;;;;;;;;;;;;;;;5091156;28;19998;-71
2021/05/25 08:17:36;;;;;;;;;;;;;;;;;;5076030;28;19908;-71
2021/05/25 08:20:14;;;;;;;;;;;;;;;;;;5072184;28;19912;-71
2021/05/25 08:22:40;;;;;;;;;;;;;;;;;;5072347;28;20011;-71
2021/05/25 08:25:06;;;;;;;;;;;;;;;;;;5081411;28;20015;-71
2021/05/25 08:27:32;;;;;;;;;;;;;;;;;;5091971;28;20795;-71
2021/05/25 08:30:00;;;;;;;;;;;;;;;;;;5092421;28;19919;-71
2021/05/25 08:32:26;;;;;;;;;;;;;;;;;;5092378;28;20007;-72
2021/05/25 08:34:52;;;;;;;;;;;;;;;;;;5092077;28;20394;-71
2021/05/25 08:37:18;;;;;;;;;;;;;;;;;;5091913;28;19923;-72
2021/05/25 08:39:44;;;;;;;;;;;;;;;;;;5092315;28;19926;-71
2021/05/25 08:42:10;;;;;;;;;;;;;;;;;;5092027;28;19904;-72
2021/05/25 08:44:36;;;;;;;;;;;;;;;;;;5091697;28;19976;-71
2021/05/25 08:47:01;;;;;;;;;;;;;;;;;;5078927;28;19908;-72
2021/05/25 08:49:28;;;;;;;;;;;;;;;;;;5071594;28;19920;-72
2021/05/25 08:51:54;;;;;;;;;;;;;;;;;;5071424;28;19904;-71
2021/05/25 08:54:20;;;;;;;;;;;;;;;;;;5071620;28;19919;-71
2021/05/25 08:56:46;;;;;;;;;;;;;;;;;;5071644;28;20247;-72
2021/05/25 08:59:12;;;;;;;;;;;;;;;;;;5071505;28;19905;-72
2021/05/25 09:01:37;;;;;;;;;;;;;;;;;;5071666;28;20394;-72
2021/05/25 09:04:09;;;;;;;;;;;;;;;;;;5071402;28;19946;-73
2021/05/25 09:06:35;;;;;;;;;;;;;;;;;;5071301;28;20426;-72
2021/05/25 09:09:01;;;;;;;;;;;;;;;;;;5071159;28;19912;-72
2021/05/25 09:11:27;;;;;;;;;;;;;;;;;;5071291;28;19950;-72
2021/05/25 09:13:53;;;;;;;;;;;;;;;;;;5071271;28;19915;-72
2021/05/25 09:16:19;;;;;;;;;;;;;;;;;;5076084;28;20317;-72
2021/05/25 09:18:46;;;;;;;;;;;;;;;;;;5091308;28;19911;-72
2021/05/25 09:21:11;;;;;;;;;;;;;;;;;;5091126;28;19900;-72
2021/05/25 09:23:42;;;;;;;;;;;;;;;;;;5091462;28;19953;-72
2021/05/25 09:26:12;;;;;;;;;;;;;;;;;;5090041;28;19942;-71
2021/05/25 09:28:38;;;;;;;;;;;;;;;;;;5091069;28;20018;-72
2021/05/25 09:31:04;;;;;;;;;;;;;;;;;;5091461;28;19994;-72
2021/05/25 09:33:32;;;;;;;;;;;;;;;;;;5091075;28;19900;-72
2021/05/25 09:35:58;;;;;;;;;;;;;;;;;;5091169;28;19912;-72
2021/05/25 09:38:23;;;;;;;;;;;;;;;;;;5091261;28;20348;-71
2021/05/25 09:40:49;;;;;;;;;;;;;;;;;;5091037;28;19911;-72
2021/05/25 09:43:15;;;;;;;;;;;;;;;;;;5089270;28;19905;-72
2021/05/25 09:45:41;;;;;;;;;;;;;;;;;;5089414;28;19904;-72
2021/05/25 09:48:07;;;;;;;;;;;;;;;;;;5070303;28;19924;-72
2021/05/25 09:50:33;;;;;;;;;;;;;;;;;;5085986;28;19955;-72
2021/05/25 09:52:59;;;;;;;;;;;;;;;;;;5091254;28;19908;-72
2021/05/25 09:55:25;;;;;;;;;;;;;;;;;;5090687;28;19919;-72
2021/05/25 09:57:51;;;;;;;;;;;;;;;;;;5091041;28;20419;-72
2021/05/25 10:00:17;;;;;;;;;;;;;;;;;;5082494;28;19908;-72
2021/05/25 10:02:43;;;;;;;;;;;;;;;;;;5075866;28;19966;-71
2021/05/25 10:05:08;;;;;;;;;;;;;;;;;;5071712;28;19952;-73
2021/05/25 10:07:34;;;;;;;;;;;;;;;;;;5070602;28;20006;-71
2021/05/25 10:10:02;;;;;;;;;;;;;;;;;;5083151;28;19930;-70
2021/05/25 10:12:28;;;;;;;;;;;;;;;;;;5069838;28;19955;-73
2021/05/25 10:14:54;;;;;;;;;;;;;;;;;;5070589;28;19954;-72
2021/05/25 10:20:06;;;;;;;;;;;;;;;;;;5059698;28;19908;-73
2021/05/25 10:22:32;;;;;;;;;;;;;;;;;;5078130;28;19908;-72
2021/05/25 10:24:57;;;;;;;;;;;;;;;;;;5069198;28;20267;-71
2021/05/25 10:27:23;;;;;;;;;;;;;;;;;;5070056;28;19987;-70
2021/05/25 10:29:49;;;;;;;;;;;;;;;;;;5070388;28;20317;-71
2021/05/25 10:32:15;;;;;;;;;;;;;;;;;;5076127;28;19908;-70
2021/05/25 10:34:41;;;;;;;;;;;;;;;;;;5090527;28;20423;-72
2021/05/25 10:37:07;;;;;;;;;;;;;;;;;;5090455;28;19908;-70
2021/05/25 10:39:34;;;;;;;;;;;;;;;;;;5085302;28;19916;-70
2021/05/25 10:42:00;;;;;;;;;;;;;;;;;;5070104;28;19915;-69
2021/05/25 10:44:26;;;;;;;;;;;;;;;;;;5069679;28;19904;-69
2021/05/25 10:46:52;;;;;;;;;;;;;;;;;;5068221;28;19923;-69
2021/05/25 10:49:25;;;;;;;;;;;;;;;;;;5069574;28;19920;-69
2021/05/25 10:51:52;;;;;;;;;;;;;;;;;;5069593;28;19908;-70
2021/05/25 10:54:17;;;;;;;;;;;;;;;;;;5077134;28;19912;-69
2021/05/25 10:56:43;;;;;;;;;;;;;;;;;;5069875;28;21234;-69
2021/05/25 10:59:10;;;;;;;;;;;;;;;;;;5070234;28;19970;-70
2021/05/25 11:01:35;;;;;;;;;;;;;;;;;;5070149;28;20255;-71
2021/05/25 11:04:01;;;;;;;;;;;;;;;;;;5070004;28;19999;-70
2021/05/25 11:06:27;;;;;;;;;;;;;;;;;;5069847;28;19908;-71
2021/05/25 11:08:53;;;;;;;;;;;;;;;;;;5069068;28;19912;-70
2021/05/25 11:11:19;;;;;;;;;;;;;;;;;;5069930;28;19908;-71
2021/05/25 11:13:45;;;;;;;;;;;;;;;;;;5071933;28;19904;-72
2021/05/25 11:21:22;;;;;;;;;;;;;;;;;;5093476;28;19904;-70
2021/05/25 11:23:50;;;;;;;;;;;;;;;;;;5093516;28;20315;-70
2021/05/25 11:26:16;;;;;;;;;;;;;;;;;;5093507;28;19908;-71
2021/05/25 11:28:41;;;;;;;;;;;;;;;;;;5093067;28;19908;-71
2021/05/25 11:31:07;;;;;;;;;;;;;;;;;;5093814;28;20296;-72
2021/05/25 11:33:33;;;;;;;;;;;;;;;;;;5093449;28;20003;-71
2021/05/25 11:35:59;;;;;;;;;;;;;;;;;;5093158;28;19911;-71
2021/05/25 11:38:25;;;;;;;;;;;;;;;;;;5092735;28;19952;-71
2021/05/25 11:40:51;;;;;;;;;;;;;;;;;;5093473;28;19930;-71
2021/05/25 11:43:17;;;;;;;;;;;;;;;;;;5093505;28;19969;-71
2021/05/25 11:45:43;;;;;;;;;;;;;;;;;;5093317;28;19931;-71
2021/05/25 11:48:09;;;;;;;;;;;;;;;;;;5074968;28;19916;-71
2021/05/25 11:50:35;;;;;;;;;;;;;;;;;;5072807;28;19919;-71
2021/05/25 11:53:01;;;;;;;;;;;;;;;;;;5073172;28;19927;-72
2021/05/25 11:55:27;;;;;;;;;;;;;;;;;;5072851;28;19912;-71
2021/05/25 11:57:53;;;;;;;;;;;;;;;;;;5072227;28;20351;-71
2021/05/25 12:00:20;;;;;;;;;;;;;;;;;;5072961;28;19904;-71
2021/05/25 12:02:46;;;;;;;;;;;;;;;;;;5071622;28;19951;-72
2021/05/25 12:05:11;;;;;;;;;;;;;;;;;;5072673;28;19952;-71
2021/05/25 12:07:37;;;;;;;;;;;;;;;;;;5072324;28;20057;-71
2021/05/25 12:10:04;;;;;;;;;;;;;;;;;;5072118;28;19912;-71
2021/05/25 12:12:30;;;;;;;;;;;;;;;;;;5072708;28;19912;-71
2021/05/25 12:14:56;;;;;;;;;;;;;;;;;;5072435;28;20374;-72
2021/05/25 12:17:22;;;;;;;;;;;;;;;;;;5072103;28;19974;-71
2021/05/25 12:19:48;;;;;;;;;;;;;;;;;;5072229;28;19908;-71
2021/05/25 12:22:14;;;;;;;;;;;;;;;;;;5072225;28;19900;-71
2021/05/25 12:24:39;;;;;;;;;;;;;;;;;;5072028;28;19904;-71
2021/05/25 12:27:05;;;;;;;;;;;;;;;;;;5072249;28;20356;-72
2021/05/25 12:29:31;;;;;;;;;;;;;;;;;;5088780;28;19919;-71
2021/05/25 12:31:57;;;;;;;;;;;;;;;;;;5092234;28;20333;-72
2021/05/25 12:34:23;;;;;;;;;;;;;;;;;;5091149;28;19917;-72
2021/05/25 12:36:49;;;;;;;;;;;;;;;;;;5092078;28;19904;-72
2021/05/25 12:39:30;;;;;;;;;;;;;;;;;;5073786;28;19930;-69
2021/05/25 12:41:56;;;;;;;;;;;;;;;;;;5072127;28;19904;-68
2021/05/25 12:44:22;;;;;;;;;;;;;;;;;;5071896;28;19999;-68
2021/05/25 12:46:48;;;;;;;;;;;;;;;;;;5072310;28;20358;-69
2021/05/25 12:49:14;;;;;;;;;;;;;;;;;;5070916;28;19962;-68
2021/05/25 12:51:39;;;;;;;;;;;;;;;;;;5071702;28;19991;-69
2021/05/25 12:54:05;;;;;;;;;;;;;;;;;;5071642;28;20297;-69
2021/05/25 12:56:31;;;;;;;;;;;;;;;;;;5086378;28;20021;-69
2021/05/25 12:58:58;;;;;;;;;;;;;;;;;;5090910;28;20498;-70
2021/05/25 13:01:25;;;;;;;;;;;;;;;;;;5091854;28;20285;-69
2021/05/25 13:03:51;;;;;;;;;;;;;;;;;;5091643;28;20372;-70
2021/05/25 13:06:31;;;;;;;;;;;;;;;;;;5091908;28;19904;-69
2021/05/25 13:08:57;;;;;;;;;;;;;;;;;;5091067;28;19911;-68
2021/05/25 13:11:23;;;;;;;;;;;;;;;;;;5091614;28;20308;-70
2021/05/25 13:13:49;;;;;;;;;;;;;;;;;;5091570;28;19904;-69
2021/05/25 13:16:15;;;;;;;;;;;;;;;;;;5090867;28;19927;-69
2021/05/25 13:18:41;;;;;;;;;;;;;;;;;;5070495;28;20313;-69
2021/05/25 13:21:07;;;;;;;;;;;;;;;;;;5070898;28;19904;-70
2021/05/25 13:23:33;;;;;;;;;;;;;;;;;;5070534;28;20315;-70
2021/05/25 13:26:12;;;;;;;;;;;;;;;;;;5071085;28;19904;-68
2021/05/25 13:28:38;;;;;;;;;;;;;;;;;;5070370;28;20408;-70
2021/05/25 13:31:04;;;;;;;;;;;;;;;;;;5070931;28;19904;-69
2021/05/25 13:33:29;;;;;;;;;;;;;;;;;;5070700;28;19962;-69
2021/05/25 13:35:55;;;;;;;;;;;;;;;;;;5070256;28;19912;-69
2021/05/25 13:38:22;;;;;;;;;;;;;;;;;;5071055;28;19946;-70
2021/05/25 13:40:47;;;;;;;;;;;;;;;;;;5074817;28;19926;-70
2021/05/25 13:43:13;;;;;;;;;;;;;;;;;;5089559;28;20281;-70
2021/05/25 13:45:39;;;;;;;;;;;;;;;;;;5091100;28;19915;-70
2021/05/25 13:48:05;;;;;;;;;;;;;;;;;;5089132;28;20408;-69
2021/05/25 13:50:32;;;;;;;;;;;;;;;;;;5089248;28;19904;-70
2021/05/25 13:52:58;;;;;;;;;;;;;;;;;;5086906;28;20371;-71
2021/05/25 13:55:26;;;;;;;;;;;;;;;;;;5070459;28;20007;-70
2021/05/25 13:57:52;;;;;;;;;;;;;;;;;;5070645;28;19923;-70
2021/05/25 14:00:30;;;;;;;;;;;;;;;;;;5070097;28;19916;-71
2021/05/25 14:02:56;;;;;;;;;;;;;;;;;;5070175;28;19955;-70
2021/05/25 14:05:21;;;;;;;;;;;;;;;;;;5070648;28;20339;-70
2021/05/25 14:07:52;;;;;;;;;;;;;;;;;;5070641;28;19908;-71
2021/05/25 14:10:18;;;;;;;;;;;;;;;;;;5080346;28;19927;-72
2021/05/25 14:12:44;;;;;;;;;;;;;;;;;;5090584;28;19904;-72
2021/05/25 14:15:09;;;;;;;;;;;;;;;;;;5090677;28;19904;-72
2021/05/25 14:17:35;;;;;;;;;;;;;;;;;;5090242;28;19998;-71
2021/05/25 14:20:01;;;;;;;;;;;;;;;;;;5090262;28;20011;-72
2021/05/25 14:22:28;;;;;;;;;;;;;;;;;;5090283;28;19904;-73
2021/05/25 14:24:54;;;;;;;;;;;;;;;;;;5084781;28;19962;-73
2021/05/25 14:27:20;;;;;;;;;;;;;;;;;;5090620;28;20285;-72
2021/05/25 14:29:46;;;;;;;;;;;;;;;;;;5090150;28;19912;-73
2021/05/25 14:32:12;;;;;;;;;;;;;;;;;;5090291;28;20433;-73
2021/05/25 14:34:39;;;;;;;;;;;;;;;;;;5090552;28;19912;-73
2021/05/25 14:37:05;;;;;;;;;;;;;;;;;;5089918;28;20407;-72
2021/05/25 14:39:31;;;;;;;;;;;;;;;;;;5088697;28;19912;-72
2021/05/25 14:41:57;;;;;;;;;;;;;;;;;;5089898;28;19910;-72
2021/05/25 14:44:23;;;;;;;;;;;;;;;;;;5090767;28;19904;-72
2021/05/25 14:46:49;;;;;;;;;;;;;;;;;;5091236;28;19915;-72
2021/05/25 14:49:16;;;;;;;;;;;;;;;;;;5082293;28;20282;-70
2021/05/25 14:51:42;;;;;;;;;;;;;;;;;;5073289;28;19905;-71
2021/05/25 14:54:09;;;;;;;;;;;;;;;;;;5078325;28;19923;-72
2021/05/25 14:56:41;;;;;;;;;;;;;;;;;;5072666;28;19912;-71
2021/05/25 14:59:17;;;;;;;;;;;;;;;;;;5074067;28;19916;-70
2021/05/25 15:01:53;;;;;;;;;;;;;;;;;;5073413;28;20357;-71
2021/05/25 15:04:25;;;;;;;;;;;;;;;;;;5080656;28;19908;-71
2021/05/25 15:06:56;;;;;;;;;;;;;;;;;;5074335;28;19908;-70
2021/05/25 15:09:26;;;;;;;;;;;;;;;;;;5092860;28;20362;-71
2021/05/25 15:11:52;;;;;;;;;;;;;;;;;;5093306;28;20421;-70
2021/05/25 15:14:18;;;;;;;;;;;;;;;;;;5086991;28;19916;-70
2021/05/25 15:16:44;;;;;;;;;;;;;;;;;;5081709;28;20624;-70
2021/05/25 15:19:10;;;;;;;;;;;;;;;;;;5073827;28;19965;-71
2021/05/25 15:21:36;;;;;;;;;;;;;;;;;;5073695;28;19912;-69
2021/05/25 15:24:01;;;;;;;;;;;;;;;;;;5085989;28;19930;-69
2021/05/25 15:26:27;;;;;;;;;;;;;;;;;;5093975;28;19904;-69
2021/05/25 15:28:53;;;;;;;;;;;;;;;;;;5093464;28;20002;-70
2021/05/25 15:31:19;;;;;;;;;;;;;;;;;;5093416;28;19935;-70
2021/05/25 15:33:45;;;;;;;;;;;;;;;;;;5093659;28;19908;-70
2021/05/25 15:36:11;;;;;;;;;;;;;;;;;;5093616;28;20017;-70
2021/05/25 15:38:39;;;;;;;;;;;;;;;;;;5093321;28;19907;-70
2021/05/25 15:41:05;;;;;;;;;;;;;;;;;;5093323;28;19946;-70
2021/05/25 15:43:31;;;;;;;;;;;;;;;;;;5092910;28;20389;-69
2021/05/25 15:45:57;;;;;;;;;;;;;;;;;;5093350;28;20007;-69
2021/05/25 15:48:23;;;;;;;;;;;;;;;;;;5092896;28;20273;-70
2021/05/25 15:50:48;;;;;;;;;;;;;;;;;;5093219;28;19926;-69
2021/05/25 15:53:16;;;;;;;;;;;;;;;;;;5086342;28;19974;-69
2021/05/25 15:55:42;;;;;;;;;;;;;;;;;;5072714;28;19976;-70
2021/05/25 15:58:08;;;;;;;;;;;;;;;;;;5072406;28;19908;-69
2021/05/25 16:00:36;;;;;;;;;;;;;;;;;;5082344;28;19920;-69
2021/05/25 16:03:02;;;;;;;;;;;;;;;;;;5093277;28;20255;-70
2021/05/25 16:05:28;;;;;;;;;;;;;;;;;;5092842;28;19914;-69
2021/05/25 16:07:56;;;;;;;;;;;;;;;;;;5104610;28;19914;-71
2021/05/25 16:10:22;;;;;;;;;;;;;;;;;;5112056;28;19904;-72
2021/05/25 16:12:47;;;;;;;;;;;;;;;;;;5110998;28;19904;-73
2021/05/25 16:15:13;;;;;;;;;;;;;;;;;;5111163;28;19939;-71
2021/05/25 16:17:41;;;;;;;;;;;;;;;;;;5111769;28;19961;-73
2021/05/25 16:20:07;;;;;;;;;;;;;;;;;;5073569;28;20349;-72
2021/05/25 16:22:33;;;;;;;;;;;;;;;;;;5070778;28;20003;-71
2021/05/25 16:24:59;;;;;;;;;;;;;;;;;;5071902;28;19908;-72
2021/05/25 16:27:24;;;;;;;;;;;;;;;;;;5071695;28;19919;-72
2021/05/25 16:29:50;;;;;;;;;;;;;;;;;;5072469;28;20025;-72
2021/05/25 16:32:16;;;;;;;;;;;;;;;;;;5076896;28;19904;-72
2021/05/25 16:34:42;;;;;;;;;;;;;;;;;;5092368;28;19904;-72
2021/05/25 16:37:08;;;;;;;;;;;;;;;;;;5092196;28;19907;-73
2021/05/25 16:39:34;;;;;;;;;;;;;;;;;;5092033;28;19980;-72
2021/05/25 16:42:00;;;;;;;;;;;;;;;;;;5091877;28;20374;-72
2021/05/25 16:44:26;;;;;;;;;;;;;;;;;;5092094;28;20037;-72
2021/05/25 16:46:53;;;;;;;;;;;;;;;;;;5092049;28;19908;-72
2021/05/25 16:49:18;;;;;;;;;;;;;;;;;;5091672;28;19923;-72